createdAt,value
2018-02-18T00:02:25.678Z,0.90
2018-02-18T00:04:53.142Z,0.90
2018-02-18T00:07:20.603Z,0.90
2018-02-18T00:09:48.056Z,0.90
2018-02-18T00:12:15.520Z,0.90
2018-02-18T00:14:46.876Z,0.90
2018-02-18T00:17:14.347Z,0.90
2018-02-18T00:19:42.563Z,1.00
2018-02-18T00:22:10.819Z,1.00
2018-02-18T00:24:38.275Z,1.00
2018-02-18T00:27:05.728Z,1.00
2018-02-18T00:29:33.180Z,1.00
2018-02-18T00:32:01.396Z,0.90
2018-02-18T00:34:28.864Z,0.90
2018-02-18T00:36:56.315Z,1.00
2018-02-18T00:39:23.773Z,1.00
2018-02-18T00:41:51.222Z,0.90
2018-02-18T00:44:18.698Z,0.90
2018-02-18T00:46:46.140Z,0.90
2018-02-18T00:49:13.599Z,0.90
2018-02-18T00:51:41.052Z,0.80
2018-02-18T00:54:08.508Z,0.80
2018-02-18T00:56:35.959Z,0.80
2018-02-18T00:59:03.417Z,0.80
2018-02-18T01:01:30.871Z,0.80
2018-02-18T01:03:58.323Z,0.80
2018-02-18T01:06:25.775Z,0.90
2018-02-18T01:08:53.240Z,0.90
2018-02-18T01:11:20.693Z,0.80
2018-02-18T01:13:48.152Z,0.80
2018-02-18T01:16:15.595Z,0.80
2018-02-18T01:18:43.051Z,0.80
2018-02-18T01:21:10.511Z,0.80
2018-02-18T01:23:37.964Z,0.80
2018-02-18T01:26:05.428Z,0.80
2018-02-18T01:28:32.895Z,0.80
2018-02-18T01:31:00.351Z,0.80
2018-02-18T01:33:27.815Z,0.70
2018-02-18T01:35:55.267Z,0.70
2018-02-18T01:38:22.728Z,0.70
2018-02-18T01:40:50.183Z,0.70
2018-02-18T01:43:17.639Z,0.70
2018-02-18T01:45:45.094Z,0.70
2018-02-18T01:48:12.545Z,0.60
2018-02-18T01:50:40.007Z,0.60
2018-02-18T01:53:07.463Z,0.60
2018-02-18T01:55:34.924Z,0.60
2018-02-18T01:58:02.381Z,0.60
2018-02-18T02:00:29.844Z,0.70
2018-02-18T02:02:57.312Z,0.70
2018-02-18T02:05:24.759Z,0.70
2018-02-18T02:07:52.215Z,0.70
2018-02-18T02:10:19.671Z,0.70
2018-02-18T02:12:47.132Z,0.70
2018-02-18T02:15:14.594Z,0.70
2018-02-18T02:17:42.052Z,0.70
2018-02-18T02:20:09.511Z,0.70
2018-02-18T02:22:36.985Z,0.70
2018-02-18T02:25:05.212Z,0.70
2018-02-18T02:27:32.663Z,0.70
2018-02-18T02:30:00.127Z,0.70
2018-02-18T02:32:27.588Z,0.70
2018-02-18T02:34:55.040Z,0.70
2018-02-18T02:37:22.500Z,0.70
2018-02-18T02:39:49.952Z,0.70
2018-02-18T02:42:17.415Z,0.70
2018-02-18T02:44:44.870Z,0.70
2018-02-18T02:47:12.320Z,0.70
2018-02-18T02:49:39.771Z,0.70
2018-02-18T02:52:07.277Z,0.70
2018-02-18T02:54:34.680Z,0.70
2018-02-18T02:57:02.135Z,0.70
2018-02-18T02:59:29.579Z,0.70
2018-02-18T03:01:57.036Z,0.70
2018-02-18T03:04:25.262Z,0.70
2018-02-18T03:06:52.715Z,0.70
2018-02-18T03:09:20.171Z,0.70
2018-02-18T03:11:47.628Z,0.70
2018-02-18T03:14:15.078Z,0.60
2018-02-18T03:16:42.544Z,0.60
2018-02-18T03:19:09.996Z,0.60
2018-02-18T03:21:37.451Z,0.60
2018-02-18T03:24:04.908Z,0.60
2018-02-18T03:26:32.374Z,0.60
2018-02-18T03:28:59.824Z,0.70
2018-02-18T03:31:27.288Z,0.70
2018-02-18T03:33:54.731Z,0.60
2018-02-18T03:36:22.191Z,0.60
2018-02-18T03:38:49.648Z,0.60
2018-02-18T03:41:17.103Z,0.60
2018-02-18T03:43:44.560Z,0.70
2018-02-18T03:46:12.015Z,0.60
2018-02-18T03:48:39.470Z,0.60
2018-02-18T03:51:06.931Z,0.60
2018-02-18T03:53:34.388Z,0.60
2018-02-18T03:56:01.852Z,0.60
2018-02-18T03:58:29.304Z,0.60
2018-02-18T04:00:56.760Z,0.60
2018-02-18T04:03:24.219Z,0.60
2018-02-18T04:05:51.675Z,0.60
2018-02-18T04:08:19.137Z,0.60
2018-02-18T04:10:46.588Z,0.60
2018-02-18T04:13:14.040Z,0.60
2018-02-18T04:15:41.491Z,0.60
2018-02-18T04:18:08.960Z,0.60
2018-02-18T04:20:36.403Z,0.60
2018-02-18T04:23:03.864Z,0.60
2018-02-18T04:25:31.311Z,0.40
2018-02-18T04:27:58.783Z,0.40
2018-02-18T04:30:26.241Z,0.30
2018-02-18T04:32:53.699Z,0.30
2018-02-18T04:35:21.158Z,0.30
2018-02-18T04:37:48.620Z,0.30
2018-02-18T04:40:16.075Z,0.30
2018-02-18T04:42:43.532Z,0.20
2018-02-18T04:45:10.975Z,0.20
2018-02-18T04:47:38.439Z,0.30
2018-02-18T04:50:05.887Z,0.20
2018-02-18T04:52:33.339Z,0.20
2018-02-18T04:55:01.417Z,0.20
2018-02-18T04:57:28.871Z,0.10
2018-02-18T04:59:56.323Z,0.10
2018-02-18T05:02:23.792Z,0.10
2018-02-18T05:04:51.243Z,0.10
2018-02-18T05:07:18.696Z,0.10
2018-02-18T05:09:46.151Z,0.00
2018-02-18T05:12:13.607Z,0.10
2018-02-18T05:14:41.063Z,0.10
2018-02-18T05:17:08.517Z,0.10
2018-02-18T05:19:35.963Z,0.10
2018-02-18T05:22:04.231Z,0.10
2018-02-18T05:24:31.687Z,0.00
2018-02-18T05:26:59.136Z,0.00
2018-02-18T05:29:26.596Z,0.00
2018-02-18T05:31:54.062Z,-0.10
2018-02-18T05:34:21.522Z,-0.10
2018-02-18T05:36:48.983Z,-0.10
2018-02-18T05:39:16.447Z,-0.10
2018-02-18T05:41:43.899Z,-0.10
2018-02-18T05:44:11.368Z,-0.10
2018-02-18T05:46:38.824Z,-0.10
2018-02-18T05:49:06.287Z,-0.10
2018-02-18T05:51:33.734Z,-0.10
2018-02-18T05:54:01.200Z,-0.10
2018-02-18T05:56:28.653Z,-0.10
2018-02-18T05:58:56.104Z,0.00
2018-02-18T06:01:23.559Z,0.00
2018-02-18T06:03:51.016Z,0.00
2018-02-18T06:06:18.476Z,0.00
2018-02-18T06:08:45.936Z,0.00
2018-02-18T06:11:13.387Z,0.00
2018-02-18T06:13:40.843Z,0.00
2018-02-18T06:16:08.302Z,0.00
2018-02-18T06:18:35.759Z,-0.10
2018-02-18T06:21:03.219Z,-0.10
2018-02-18T06:23:30.680Z,0.00
2018-02-18T06:25:58.134Z,0.00
2018-02-18T06:28:25.588Z,0.10
2018-02-18T06:30:53.044Z,0.10
2018-02-18T06:33:20.500Z,0.10
2018-02-18T06:35:47.959Z,0.10
2018-02-18T06:38:15.432Z,0.20
2018-02-18T06:40:42.868Z,0.20
2018-02-18T06:43:10.320Z,0.20
2018-02-18T06:45:37.771Z,0.20
2018-02-18T06:48:05.226Z,0.10
2018-02-18T06:50:32.682Z,0.00
2018-02-18T06:53:00.140Z,0.00
2018-02-18T06:55:27.611Z,0.00
2018-02-18T06:57:55.070Z,0.00
2018-02-18T07:00:22.519Z,0.00
2018-02-18T07:02:49.979Z,-0.10
2018-02-18T07:05:17.446Z,-0.10
2018-02-18T07:07:44.891Z,-0.10
2018-02-18T07:10:12.348Z,-0.10
2018-02-18T07:12:39.796Z,0.00
2018-02-18T07:15:07.259Z,-0.10
2018-02-18T07:17:34.961Z,0.00
2018-02-18T07:20:02.450Z,0.00
2018-02-18T07:22:29.908Z,0.10
2018-02-18T07:24:57.351Z,0.10
2018-02-18T07:27:24.807Z,0.20
2018-02-18T07:29:52.268Z,0.30
2018-02-18T07:32:19.723Z,0.30
2018-02-18T07:34:48.171Z,0.30
2018-02-18T07:37:16.400Z,0.40
2018-02-18T07:39:43.847Z,0.40
2018-02-18T07:42:11.313Z,0.50
2018-02-18T07:44:38.763Z,0.50
2018-02-18T07:47:06.219Z,0.50
2018-02-18T07:49:33.688Z,0.50
2018-02-18T07:52:01.143Z,0.50
2018-02-18T07:54:28.596Z,0.50
2018-02-18T07:56:56.060Z,0.40
2018-02-18T07:59:23.506Z,0.40
2018-02-18T08:01:50.975Z,0.50
2018-02-18T08:04:18.424Z,0.60
2018-02-18T08:06:45.884Z,0.70
2018-02-18T08:09:13.340Z,0.80
2018-02-18T08:11:40.796Z,0.80
2018-02-18T08:14:08.246Z,0.90
2018-02-18T08:16:35.708Z,0.90
2018-02-18T08:19:03.165Z,0.90
2018-02-18T08:21:30.619Z,1.00
2018-02-18T08:23:58.064Z,0.80
2018-02-18T08:26:25.520Z,0.80
2018-02-18T08:28:52.971Z,0.70
2018-02-18T08:31:20.432Z,0.60
2018-02-18T08:33:47.887Z,0.60
2018-02-18T08:36:15.339Z,0.70
2018-02-18T08:38:42.804Z,0.70
2018-02-18T08:41:10.256Z,0.70
2018-02-18T08:43:37.732Z,0.70
2018-02-18T08:46:05.228Z,0.60
2018-02-18T08:48:32.717Z,0.70
2018-02-18T08:51:00.156Z,0.60
2018-02-18T08:53:27.627Z,0.60
2018-02-18T08:55:55.076Z,0.50
2018-02-18T08:58:22.536Z,0.60
2018-02-18T09:00:50.371Z,0.70
2018-02-18T09:03:17.823Z,0.70
2018-02-18T09:05:45.276Z,0.80
2018-02-18T09:08:13.520Z,0.90
2018-02-18T09:10:40.971Z,0.90
2018-02-18T09:13:08.432Z,0.90
2018-02-18T09:15:35.888Z,1.00
2018-02-18T09:18:03.344Z,1.10
2018-02-18T09:20:30.803Z,1.10
2018-02-18T09:22:58.260Z,1.10
2018-02-18T09:25:25.724Z,1.20
2018-02-18T09:27:53.188Z,1.30
2018-02-18T09:30:21.915Z,1.50
2018-02-18T09:32:49.392Z,1.50
2018-02-18T09:35:16.849Z,1.50
2018-02-18T09:37:44.335Z,1.40
2018-02-18T09:40:11.788Z,1.30
2018-02-18T09:42:39.247Z,1.40
2018-02-18T09:45:06.703Z,1.10
2018-02-18T09:47:34.152Z,1.00
2018-02-18T09:50:01.612Z,1.00
2018-02-18T09:52:29.072Z,1.30
2018-02-18T09:54:56.540Z,1.50
2018-02-18T09:57:24.789Z,1.90
2018-02-18T09:59:52.243Z,1.90
2018-02-18T10:02:19.707Z,2.30
2018-02-18T10:04:47.168Z,2.50
2018-02-18T10:07:14.622Z,3.10
2018-02-18T10:09:42.087Z,3.70
2018-02-18T10:12:09.540Z,4.10
2018-02-18T10:14:37.133Z,4.10
2018-02-18T10:17:04.619Z,4.30
2018-02-18T10:19:32.080Z,4.10
2018-02-18T10:21:59.552Z,3.60
2018-02-18T10:24:27.024Z,3.10
2018-02-18T10:26:54.480Z,2.90
2018-02-18T10:29:21.948Z,2.80
2018-02-18T10:31:49.409Z,2.70
2018-02-18T10:34:17.668Z,3.20
2018-02-18T10:36:45.876Z,3.20
2018-02-18T10:39:14.228Z,4.40
2018-02-18T10:41:41.692Z,4.40
2018-02-18T10:44:10.263Z,4.80
2018-02-18T10:46:38.039Z,5.50
2018-02-18T10:49:05.561Z,6.00
2018-02-18T10:51:33.564Z,6.40
2018-02-18T10:54:01.388Z,6.60
2018-02-18T10:56:29.572Z,6.60
2018-02-18T10:58:57.207Z,6.50
2018-02-18T11:01:25.538Z,7.00
2018-02-18T11:03:52.990Z,7.00
2018-02-18T11:06:21.376Z,6.80
2018-02-18T11:08:48.932Z,7.00
2018-02-18T11:11:16.512Z,7.10
2018-02-18T11:13:44.485Z,7.90
2018-02-18T11:16:12.817Z,7.00
2018-02-18T11:18:40.261Z,7.00
2018-02-18T11:21:07.715Z,6.10
2018-02-18T11:23:35.167Z,5.10
2018-02-18T11:26:02.631Z,4.50
2018-02-18T11:28:30.076Z,4.50
2018-02-18T11:30:57.539Z,4.40
2018-02-18T11:33:24.996Z,4.40
2018-02-18T11:35:52.451Z,4.20
2018-02-18T11:38:19.955Z,4.10
2018-02-18T11:40:47.412Z,4.10
2018-02-18T11:43:14.861Z,3.90
2018-02-18T11:45:42.320Z,3.90
2018-02-18T11:48:09.775Z,3.90
2018-02-18T11:50:37.246Z,3.80
2018-02-18T11:53:04.688Z,3.90
2018-02-18T11:55:32.143Z,3.70
2018-02-18T11:57:59.596Z,3.60
2018-02-18T12:00:27.056Z,3.40
2018-02-18T12:02:54.577Z,3.20
2018-02-18T12:05:22.036Z,3.30
2018-02-18T12:07:49.492Z,3.50
2018-02-18T12:10:16.947Z,3.50
2018-02-18T12:12:44.407Z,3.60
2018-02-18T12:15:11.859Z,3.60
2018-02-18T12:17:39.410Z,3.60
2018-02-18T12:20:06.863Z,3.50
2018-02-18T12:22:34.327Z,3.40
2018-02-18T12:25:01.789Z,3.40
2018-02-18T12:27:29.249Z,3.40
2018-02-18T12:29:56.708Z,3.50
2018-02-18T12:32:24.176Z,3.60
2018-02-18T12:34:51.635Z,3.50
2018-02-18T12:37:19.096Z,3.60
2018-02-18T12:39:46.544Z,3.80
2018-02-18T12:42:14.015Z,3.80
2018-02-18T12:44:41.576Z,3.80
2018-02-18T12:47:09.027Z,3.60
2018-02-18T12:49:36.483Z,3.60
2018-02-18T12:52:03.946Z,3.50
2018-02-18T12:54:31.401Z,3.40
2018-02-18T12:56:58.865Z,3.40
2018-02-18T12:59:27.091Z,3.40
2018-02-18T13:01:54.555Z,3.40
2018-02-18T13:04:22.020Z,3.50
2018-02-18T13:06:49.483Z,3.20
2018-02-18T13:09:16.944Z,3.20
2018-02-18T13:11:44.401Z,3.10
2018-02-18T13:14:11.857Z,3.20
2018-02-18T13:16:39.335Z,3.20
2018-02-18T13:19:07.580Z,3.30
2018-02-18T13:21:35.044Z,3.30
2018-02-18T13:24:02.501Z,3.50
2018-02-18T13:26:29.963Z,3.50
2018-02-18T13:28:57.428Z,3.50
2018-02-18T13:31:24.875Z,3.40
2018-02-18T13:33:52.349Z,3.40
2018-02-18T13:36:19.796Z,3.50
2018-02-18T13:38:47.264Z,3.40
2018-02-18T13:41:14.704Z,3.50
2018-02-18T13:43:42.167Z,3.60
2018-02-18T13:46:09.625Z,3.50
2018-02-18T13:48:37.092Z,3.40
2018-02-18T13:51:04.551Z,3.40
2018-02-18T13:53:32.008Z,3.20
2018-02-18T13:56:00.231Z,3.20
2018-02-18T13:58:27.742Z,3.20
2018-02-18T14:00:55.168Z,3.10
2018-02-18T14:03:22.640Z,3.10
2018-02-18T14:05:50.093Z,3.00
2018-02-18T14:08:17.559Z,3.00
2018-02-18T14:10:45.015Z,2.90
2018-02-18T14:13:12.476Z,2.90
2018-02-18T14:15:39.932Z,2.90
2018-02-18T14:18:08.423Z,2.70
2018-02-18T14:20:37.311Z,2.60
2018-02-18T14:23:04.849Z,2.60
2018-02-18T14:25:32.308Z,2.60
2018-02-18T14:27:59.763Z,2.50
2018-02-18T14:30:27.217Z,2.50
2018-02-18T14:32:54.683Z,2.50
2018-02-18T14:35:22.148Z,2.50
2018-02-18T14:37:50.371Z,2.50
2018-02-18T14:40:17.827Z,2.50
2018-02-18T14:42:57.112Z,2.50
2018-02-18T14:45:37.184Z,2.50
2018-02-18T14:48:16.568Z,2.50
2018-02-18T14:50:56.080Z,2.40
2018-02-18T14:53:35.519Z,2.40
2018-02-18T14:58:57.646Z,2.40
2018-02-18T15:01:25.107Z,2.40
2018-02-18T15:03:52.565Z,2.50
2018-02-18T15:06:20.016Z,2.50
2018-02-18T15:08:47.476Z,2.40
2018-02-18T15:11:14.927Z,2.40
2018-02-18T15:13:42.376Z,2.50
2018-02-18T15:16:10.611Z,2.50
2018-02-18T15:18:38.068Z,2.50
2018-02-18T15:21:06.523Z,2.50
2018-02-18T15:23:34.052Z,2.50
2018-02-18T15:26:01.464Z,2.60
2018-02-18T15:28:28.908Z,2.70
2018-02-18T15:30:56.364Z,2.70
2018-02-18T15:33:23.816Z,2.70
2018-02-18T15:35:51.439Z,2.80
2018-02-18T15:38:19.160Z,2.80
2018-02-18T15:40:46.616Z,2.60
2018-02-18T15:43:14.071Z,2.60
2018-02-18T15:45:41.532Z,2.60
2018-02-18T15:48:08.984Z,2.50
2018-02-18T15:50:36.440Z,2.50
2018-02-18T15:53:03.896Z,2.60
2018-02-18T15:55:31.348Z,2.50
2018-02-18T15:57:58.807Z,2.40
2018-02-18T16:00:26.268Z,2.40
2018-02-18T16:02:53.716Z,2.40
2018-02-18T16:05:21.179Z,2.30
2018-02-18T16:07:48.636Z,2.30
2018-02-18T16:10:16.890Z,2.30
2018-02-18T16:12:44.342Z,2.30
2018-02-18T16:15:11.934Z,2.40
2018-02-18T16:17:39.399Z,2.50
2018-02-18T16:20:07.304Z,2.60
2018-02-18T16:22:35.607Z,2.70
2018-02-18T16:25:03.088Z,2.70
2018-02-18T16:27:30.539Z,2.60
2018-02-18T16:29:57.995Z,2.50
2018-02-18T16:32:25.446Z,2.40
2018-02-18T16:34:52.904Z,2.40
2018-02-18T16:37:20.372Z,2.30
2018-02-18T16:39:47.831Z,2.40
2018-02-18T16:42:15.302Z,2.30
2018-02-18T16:44:42.751Z,2.30
2018-02-18T16:47:10.974Z,2.20
2018-02-18T16:49:38.419Z,2.20
2018-02-18T16:52:06.650Z,2.20
2018-02-18T16:54:34.131Z,2.20
2018-02-18T16:57:01.582Z,2.20
2018-02-18T16:59:29.031Z,2.20
2018-02-18T17:01:56.491Z,2.10
2018-02-18T17:04:23.943Z,2.10
2018-02-18T17:06:51.403Z,2.10
2018-02-18T17:09:18.863Z,2.10
2018-02-18T17:11:46.378Z,2.10
2018-02-18T17:14:14.595Z,2.10
2018-02-18T17:16:42.047Z,2.10
2018-02-18T17:19:09.980Z,2.10
2018-02-18T17:21:37.538Z,2.10
2018-02-18T17:24:04.994Z,2.10
2018-02-18T17:26:32.453Z,2.00
2018-02-18T17:28:59.909Z,2.00
2018-02-18T17:31:27.364Z,2.00
2018-02-18T17:33:54.819Z,2.00
2018-02-18T17:36:22.353Z,2.00
2018-02-18T17:38:49.838Z,2.00
2018-02-18T17:41:17.291Z,2.00
2018-02-18T17:43:44.748Z,2.00
2018-02-18T17:46:12.203Z,2.00
2018-02-18T17:48:39.659Z,2.00
2018-02-18T17:51:07.115Z,1.90
2018-02-18T17:53:34.576Z,1.90
2018-02-18T17:56:02.811Z,2.00
2018-02-18T17:58:31.450Z,2.00
2018-02-18T18:00:58.991Z,2.00
2018-02-18T18:03:26.447Z,1.90
2018-02-18T18:05:53.912Z,2.00
2018-02-18T18:08:21.367Z,2.00
2018-02-18T18:10:48.815Z,2.00
2018-02-18T18:13:16.304Z,2.00
2018-02-18T18:15:43.765Z,2.00
2018-02-18T18:18:11.223Z,2.00
2018-02-18T18:20:38.684Z,2.00
2018-02-18T18:23:06.135Z,2.00
2018-02-18T18:25:33.702Z,2.00
2018-02-18T18:28:01.147Z,2.00
2018-02-18T18:30:28.603Z,2.10
2018-02-18T18:32:56.138Z,2.10
2018-02-18T18:35:23.535Z,2.20
2018-02-18T18:37:50.976Z,2.10
2018-02-18T18:40:18.440Z,2.10
2018-02-18T18:42:45.887Z,2.10
2018-02-18T18:45:13.351Z,2.10
2018-02-18T18:47:40.795Z,2.10
2018-02-18T18:50:08.263Z,2.10
2018-02-18T18:52:36.327Z,2.00
2018-02-18T18:55:03.785Z,2.00
2018-02-18T18:57:32.126Z,2.00
2018-02-18T18:59:59.589Z,2.00
2018-02-18T19:02:27.043Z,1.90
2018-02-18T19:04:54.510Z,1.90
2018-02-18T19:07:21.966Z,1.90
2018-02-18T19:09:49.435Z,1.90
2018-02-18T19:12:16.885Z,1.90
2018-02-18T19:14:44.375Z,2.00
2018-02-18T19:17:12.603Z,1.90
2018-02-18T19:19:40.062Z,1.90
2018-02-18T19:22:07.523Z,1.90
2018-02-18T19:24:34.982Z,1.90
2018-02-18T19:27:02.439Z,1.90
2018-02-18T19:29:29.911Z,1.90
2018-02-18T19:31:57.364Z,1.90
2018-02-18T19:34:24.867Z,1.90
2018-02-18T19:36:52.315Z,1.90
2018-02-18T19:39:20.538Z,1.90
2018-02-18T19:41:47.999Z,1.90
2018-02-18T19:44:16.241Z,2.00
2018-02-18T19:46:43.697Z,2.00
2018-02-18T19:49:11.178Z,2.00
2018-02-18T19:51:38.638Z,2.00
2018-02-18T19:54:06.084Z,2.10
2018-02-18T19:56:33.559Z,2.10
2018-02-18T19:59:01.036Z,2.10
2018-02-18T20:01:29.299Z,2.10
2018-02-18T20:03:56.763Z,2.10
2018-02-18T20:06:24.232Z,2.10
2018-02-18T20:08:51.730Z,2.10
2018-02-18T20:11:19.171Z,2.10
2018-02-18T20:13:46.655Z,2.10
2018-02-18T20:16:14.115Z,2.10
2018-02-18T20:18:41.581Z,2.00
2018-02-18T20:21:09.043Z,2.10
2018-02-18T20:23:36.494Z,2.10
2018-02-18T20:26:03.959Z,2.00
2018-02-18T20:28:31.407Z,2.00
2018-02-18T20:30:58.870Z,2.00
2018-02-18T20:33:26.338Z,2.00
2018-02-18T20:35:53.802Z,2.00
2018-02-18T20:38:21.260Z,2.10
2018-02-18T20:40:48.712Z,2.10
2018-02-18T20:43:16.164Z,2.10
2018-02-18T20:45:44.383Z,2.10
2018-02-18T20:48:11.832Z,2.10
2018-02-18T20:50:40.073Z,2.10
2018-02-18T20:53:07.531Z,2.10
2018-02-18T20:55:34.992Z,2.10
2018-02-18T20:58:02.453Z,2.00
2018-02-18T21:00:29.907Z,2.00
2018-02-18T21:02:57.359Z,2.00
2018-02-18T21:05:24.822Z,2.00
2018-02-18T21:07:52.276Z,2.00
2018-02-18T21:10:19.731Z,1.90
2018-02-18T21:12:47.478Z,1.90
2018-02-18T21:15:14.936Z,1.90
2018-02-18T21:17:42.407Z,1.90
2018-02-18T21:20:09.878Z,1.90
2018-02-18T21:22:37.433Z,2.00
2018-02-18T21:25:05.671Z,2.10
2018-02-18T21:27:33.123Z,2.00
2018-02-18T21:30:00.575Z,2.00
2018-02-18T21:32:28.095Z,2.00
2018-02-18T21:34:56.327Z,1.90
2018-02-18T21:37:23.904Z,1.90
2018-02-18T21:39:51.344Z,1.90
2018-02-18T21:42:18.881Z,1.90
2018-02-18T21:44:47.106Z,1.90
2018-02-18T21:47:14.571Z,1.90
2018-02-18T21:49:42.816Z,1.90
2018-02-18T21:52:10.397Z,1.90
2018-02-18T21:54:37.883Z,1.90
2018-02-18T21:57:05.387Z,1.90
2018-02-18T21:59:32.947Z,2.00
2018-02-18T22:02:01.269Z,1.90
2018-02-18T22:04:28.961Z,1.90
2018-02-18T22:06:57.281Z,1.90
2018-02-18T22:09:24.700Z,1.90
2018-02-18T22:11:52.216Z,1.80
2018-02-18T22:14:20.433Z,1.90
2018-02-18T22:16:47.883Z,1.90
2018-02-18T22:19:15.335Z,1.90
2018-02-18T22:21:42.800Z,1.90
2018-02-18T22:24:10.331Z,1.90
2018-02-18T22:26:37.809Z,1.80
2018-02-18T22:29:05.259Z,1.80
2018-02-18T22:31:32.710Z,1.80
2018-02-18T22:34:00.171Z,1.80
2018-02-18T22:36:27.628Z,1.80
2018-02-18T22:38:55.083Z,1.90
2018-02-18T22:41:23.303Z,1.90
2018-02-18T22:43:50.755Z,1.80
2018-02-18T22:46:18.207Z,1.90
2018-02-18T22:48:45.660Z,1.80
2018-02-18T22:51:13.119Z,1.80
2018-02-18T22:53:40.572Z,1.80
2018-02-18T22:56:08.028Z,1.80
2018-02-18T22:58:35.486Z,1.80
2018-02-18T23:01:02.940Z,1.80
2018-02-18T23:03:30.400Z,1.80
2018-02-18T23:05:57.845Z,1.80
2018-02-18T23:08:25.298Z,1.80
2018-02-18T23:10:52.752Z,1.80
2018-02-18T23:13:20.210Z,1.80
2018-02-18T23:15:47.664Z,1.80
2018-02-18T23:18:15.122Z,1.80
2018-02-18T23:20:54.807Z,1.80
2018-02-18T23:23:23.032Z,1.80
2018-02-18T23:25:50.488Z,1.70
2018-02-18T23:28:17.952Z,1.70
2018-02-18T23:30:45.413Z,1.70
2018-02-18T23:33:12.866Z,1.70
2018-02-18T23:35:40.325Z,1.70
2018-02-18T23:38:07.778Z,1.60
2018-02-18T23:40:35.227Z,1.60
2018-02-18T23:43:02.687Z,1.60
2018-02-18T23:45:30.134Z,1.60
2018-02-18T23:47:57.593Z,1.60
2018-02-18T23:50:25.043Z,1.60
2018-02-18T23:52:53.259Z,1.60
2018-02-18T23:55:20.710Z,1.60
2018-02-18T23:57:48.165Z,1.60
